sensor_id;sensor_type;location;lat;lon;timestamp;temperature;humidity
516;DHT22;244;48.508;9.052;2023-01-15T00:01:56;11.10;23.40
516;DHT22;244;48.508;9.052;2023-01-15T00:04:23;11.20;23.50
516;DHT22;244;48.508;9.052;2023-01-15T00:06:50;11.20;23.50
516;DHT22;244;48.508;9.052;2023-01-15T00:09:20;11.20;23.40
516;DHT22;244;48.508;9.052;2023-01-15T00:11:50;11.30;23.30
516;DHT22;244;48.508;9.052;2023-01-15T00:14:16;11.30;23.10
516;DHT22;244;48.508;9.052;2023-01-15T00:16:43;11.40;23.10
516;DHT22;244;48.508;9.052;2023-01-15T00:19:10;11.40;22.90
516;DHT22;244;48.508;9.052;2023-01-15T00:21:37;11.50;22.80
516;DHT22;244;48.508;9.052;2023-01-15T00:24:04;11.60;22.70
516;DHT22;244;48.508;9.052;2023-01-15T00:26:50;11.70;22.60
516;DHT22;244;48.508;9.052;2023-01-15T00:29:34;11.80;23.00
516;DHT22;244;48.508;9.052;2023-01-15T00:32:03;11.80;22.10
516;DHT22;244;48.508;9.052;2023-01-15T00:34:30;11.90;22.00
516;DHT22;244;48.508;9.052;2023-01-15T00:36:58;12.00;21.70
516;DHT22;244;48.508;9.052;2023-01-15T00:39:25;12.10;21.50
516;DHT22;244;48.508;9.052;2023-01-15T00:41:54;12.20;21.10
516;DHT22;244;48.508;9.052;2023-01-15T00:44:21;12.40;20.90
516;DHT22;244;48.508;9.052;2023-01-15T00:46:48;12.50;20.50
516;DHT22;244;48.508;9.052;2023-01-15T00:49:15;12.60;20.20
516;DHT22;244;48.508;9.052;2023-01-15T00:51:42;12.70;19.90
516;DHT22;244;48.508;9.052;2023-01-15T00:54:09;12.80;20.30
516;DHT22;244;48.508;9.052;2023-01-15T00:56:36;12.90;19.50
516;DHT22;244;48.508;9.052;2023-01-15T00:59:05;12.90;19.80
516;DHT22;244;48.508;9.052;2023-01-15T01:01:32;12.90;19.10
516;DHT22;244;48.508;9.052;2023-01-15T01:03:59;12.80;19.00
516;DHT22;244;48.508;9.052;2023-01-15T01:06:26;12.70;19.10
516;DHT22;244;48.508;9.052;2023-01-15T01:08:54;12.60;19.90
516;DHT22;244;48.508;9.052;2023-01-15T01:11:22;12.40;19.50
516;DHT22;244;48.508;9.052;2023-01-15T01:13:52;12.30;19.70
516;DHT22;244;48.508;9.052;2023-01-15T01:16:26;12.20;20.50
516;DHT22;244;48.508;9.052;2023-01-15T01:18:55;12.10;20.20
516;DHT22;244;48.508;9.052;2023-01-15T01:21:23;12.10;20.40
516;DHT22;244;48.508;9.052;2023-01-15T01:23:50;12.00;20.60
516;DHT22;244;48.508;9.052;2023-01-15T01:26:16;12.00;20.60
516;DHT22;244;48.508;9.052;2023-01-15T01:28:48;12.00;20.60
516;DHT22;244;48.508;9.052;2023-01-15T01:31:15;12.00;20.60
516;DHT22;244;48.508;9.052;2023-01-15T01:33:43;12.00;20.80
516;DHT22;244;48.508;9.052;2023-01-15T01:36:10;12.00;21.40
516;DHT22;244;48.508;9.052;2023-01-15T01:38:37;12.00;20.80
516;DHT22;244;48.508;9.052;2023-01-15T01:41:04;12.10;20.70
516;DHT22;244;48.508;9.052;2023-01-15T01:43:55;12.20;20.70
516;DHT22;244;48.508;9.052;2023-01-15T01:46:22;12.30;20.80
516;DHT22;244;48.508;9.052;2023-01-15T01:48:54;12.30;21.40
516;DHT22;244;48.508;9.052;2023-01-15T01:51:24;12.30;20.70
516;DHT22;244;48.508;9.052;2023-01-15T01:53:52;12.40;21.10
516;DHT22;244;48.508;9.052;2023-01-15T01:56:20;12.50;20.50
516;DHT22;244;48.508;9.052;2023-01-15T01:58:50;12.50;20.40
516;DHT22;244;48.508;9.052;2023-01-15T02:01:18;12.60;20.20
516;DHT22;244;48.508;9.052;2023-01-15T02:03:46;12.70;20.20
516;DHT22;244;48.508;9.052;2023-01-15T02:06:14;12.80;20.10
516;DHT22;244;48.508;9.052;2023-01-15T02:08:42;12.80;20.00
516;DHT22;244;48.508;9.052;2023-01-15T02:11:16;12.80;19.90
516;DHT22;244;48.508;9.052;2023-01-15T02:13:46;12.90;19.90
516;DHT22;244;48.508;9.052;2023-01-15T02:16:18;12.90;19.80
516;DHT22;244;48.508;9.052;2023-01-15T02:18:52;12.90;20.30
516;DHT22;244;48.508;9.052;2023-01-15T02:21:29;13.00;19.70
516;DHT22;244;48.508;9.052;2023-01-15T02:24:06;13.00;19.60
516;DHT22;244;48.508;9.052;2023-01-15T02:27:08;13.10;19.60
516;DHT22;244;48.508;9.052;2023-01-15T02:29:44;13.10;19.50
516;DHT22;244;48.508;9.052;2023-01-15T02:32:16;13.10;19.40
516;DHT22;244;48.508;9.052;2023-01-15T02:34:48;13.10;19.40
516;DHT22;244;48.508;9.052;2023-01-15T02:37:19;13.00;19.40
516;DHT22;244;48.508;9.052;2023-01-15T02:39:48;13.00;19.60
516;DHT22;244;48.508;9.052;2023-01-15T02:42:19;12.90;19.60
516;DHT22;244;48.508;9.052;2023-01-15T02:44:50;12.90;19.60
516;DHT22;244;48.508;9.052;2023-01-15T02:47:20;12.90;19.70
516;DHT22;244;48.508;9.052;2023-01-15T02:49:49;12.90;19.70
516;DHT22;244;48.508;9.052;2023-01-15T02:52:21;13.00;20.30
516;DHT22;244;48.508;9.052;2023-01-15T02:54:52;13.00;19.70
516;DHT22;244;48.508;9.052;2023-01-15T02:57:23;13.10;19.70
516;DHT22;244;48.508;9.052;2023-01-15T02:59:53;13.10;19.60
516;DHT22;244;48.508;9.052;2023-01-15T03:02:24;13.10;19.60
516;DHT22;244;48.508;9.052;2023-01-15T03:04:57;13.10;19.60
516;DHT22;244;48.508;9.052;2023-01-15T03:07:31;13.20;19.60
516;DHT22;244;48.508;9.052;2023-01-15T03:10:00;13.20;19.60
516;DHT22;244;48.508;9.052;2023-01-15T03:12:34;13.20;19.60
516;DHT22;244;48.508;9.052;2023-01-15T03:15:24;13.20;19.50
516;DHT22;244;48.508;9.052;2023-01-15T03:18:10;13.20;19.50
516;DHT22;244;48.508;9.052;2023-01-15T03:20:42;13.20;19.50
516;DHT22;244;48.508;9.052;2023-01-15T03:23:13;13.30;19.50
516;DHT22;244;48.508;9.052;2023-01-15T03:25:45;13.30;19.50
516;DHT22;244;48.508;9.052;2023-01-15T03:28:19;13.20;19.40
516;DHT22;244;48.508;9.052;2023-01-15T03:30:47;13.30;19.50
516;DHT22;244;48.508;9.052;2023-01-15T03:33:14;13.20;19.40
516;DHT22;244;48.508;9.052;2023-01-15T03:35:47;13.20;19.40
516;DHT22;244;48.508;9.052;2023-01-15T03:38:17;13.20;19.50
516;DHT22;244;48.508;9.052;2023-01-15T03:40:50;13.20;19.50
516;DHT22;244;48.508;9.052;2023-01-15T03:43:23;13.20;20.20
516;DHT22;244;48.508;9.052;2023-01-15T03:46:12;13.20;19.60
516;DHT22;244;48.508;9.052;2023-01-15T03:48:44;13.20;19.70
516;DHT22;244;48.508;9.052;2023-01-15T03:51:20;13.20;20.40
516;DHT22;244;48.508;9.052;2023-01-15T03:53:52;13.00;19.90
516;DHT22;244;48.508;9.052;2023-01-15T03:56:26;12.90;20.90
516;DHT22;244;48.508;9.052;2023-01-15T03:59:00;12.70;20.50
516;DHT22;244;48.508;9.052;2023-01-15T04:01:32;12.60;21.00
516;DHT22;244;48.508;9.052;2023-01-15T04:04:01;12.40;21.00
516;DHT22;244;48.508;9.052;2023-01-15T04:06:30;12.40;21.40
516;DHT22;244;48.508;9.052;2023-01-15T04:08:58;12.30;21.60
516;DHT22;244;48.508;9.052;2023-01-15T04:11:26;12.30;22.30
516;DHT22;244;48.508;9.052;2023-01-15T04:13:53;12.30;21.90
516;DHT22;244;48.508;9.052;2023-01-15T04:16:25;12.30;22.00
516;DHT22;244;48.508;9.052;2023-01-15T04:18:52;12.30;22.60
516;DHT22;244;48.508;9.052;2023-01-15T04:21:19;12.30;22.00
516;DHT22;244;48.508;9.052;2023-01-15T04:23:46;12.40;22.10
516;DHT22;244;48.508;9.052;2023-01-15T04:26:13;12.40;22.00
516;DHT22;244;48.508;9.052;2023-01-15T04:28:40;12.40;22.00
516;DHT22;244;48.508;9.052;2023-01-15T04:31:07;12.50;22.50
516;DHT22;244;48.508;9.052;2023-01-15T04:33:36;12.50;21.80
516;DHT22;244;48.508;9.052;2023-01-15T04:36:04;12.60;21.80
516;DHT22;244;48.508;9.052;2023-01-15T04:38:31;12.60;21.70
516;DHT22;244;48.508;9.052;2023-01-15T04:41:00;12.70;22.30
516;DHT22;244;48.508;9.052;2023-01-15T04:43:56;12.70;21.50
516;DHT22;244;48.508;9.052;2023-01-15T04:46:33;12.70;21.50
516;DHT22;244;48.508;9.052;2023-01-15T04:49:01;12.80;21.50
516;DHT22;244;48.508;9.052;2023-01-15T04:51:28;12.80;22.00
516;DHT22;244;48.508;9.052;2023-01-15T04:53:55;12.80;21.30
516;DHT22;244;48.508;9.052;2023-01-15T04:56:22;12.90;21.20
516;DHT22;244;48.508;9.052;2023-01-15T04:58:49;12.90;21.20
516;DHT22;244;48.508;9.052;2023-01-15T05:01:16;12.90;21.20
516;DHT22;244;48.508;9.052;2023-01-15T05:03:44;13.00;21.30
516;DHT22;244;48.508;9.052;2023-01-15T05:06:12;13.00;21.30
516;DHT22;244;48.508;9.052;2023-01-15T05:08:39;13.00;21.90
516;DHT22;244;48.508;9.052;2023-01-15T05:11:06;13.00;21.70
516;DHT22;244;48.508;9.052;2023-01-15T05:13:33;13.00;21.10
516;DHT22;244;48.508;9.052;2023-01-15T05:16:12;13.10;21.10
516;DHT22;244;48.508;9.052;2023-01-15T05:18:39;13.10;21.00
516;DHT22;244;48.508;9.052;2023-01-15T05:21:14;13.10;20.90
516;DHT22;244;48.508;9.052;2023-01-15T05:23:42;13.10;20.90
516;DHT22;244;48.508;9.052;2023-01-15T05:26:09;13.20;20.80
516;DHT22;244;48.508;9.052;2023-01-15T05:28:36;13.20;20.80
516;DHT22;244;48.508;9.052;2023-01-15T05:31:07;13.10;20.70
516;DHT22;244;48.508;9.052;2023-01-15T05:33:35;13.20;20.80
516;DHT22;244;48.508;9.052;2023-01-15T05:36:03;13.20;20.70
516;DHT22;244;48.508;9.052;2023-01-15T05:38:32;13.20;20.80
516;DHT22;244;48.508;9.052;2023-01-15T05:41:01;13.20;20.70
516;DHT22;244;48.508;9.052;2023-01-15T05:43:28;13.10;21.30
516;DHT22;244;48.508;9.052;2023-01-15T05:46:00;13.10;20.70
516;DHT22;244;48.508;9.052;2023-01-15T05:48:27;13.10;20.70
516;DHT22;244;48.508;9.052;2023-01-15T05:50:54;13.00;21.30
516;DHT22;244;48.508;9.052;2023-01-15T05:53:20;13.10;20.80
516;DHT22;244;48.508;9.052;2023-01-15T05:55:49;13.00;20.80
516;DHT22;244;48.508;9.052;2023-01-15T05:58:16;13.00;20.90
516;DHT22;244;48.508;9.052;2023-01-15T06:00:42;13.00;21.00
516;DHT22;244;48.508;9.052;2023-01-15T06:03:09;13.00;21.10
516;DHT22;244;48.508;9.052;2023-01-15T06:05:36;12.90;21.70
516;DHT22;244;48.508;9.052;2023-01-15T06:08:03;12.90;21.20
516;DHT22;244;48.508;9.052;2023-01-15T06:10:30;12.90;21.20
516;DHT22;244;48.508;9.052;2023-01-15T06:12:58;12.90;21.80
516;DHT22;244;48.508;9.052;2023-01-15T06:15:25;12.90;21.80
516;DHT22;244;48.508;9.052;2023-01-15T06:17:52;12.80;21.70
516;DHT22;244;48.508;9.052;2023-01-15T06:20:19;12.50;20.70
516;DHT22;244;48.508;9.052;2023-01-15T06:22:48;12.10;20.70
516;DHT22;244;48.508;9.052;2023-01-15T06:25:15;11.80;20.40
516;DHT22;244;48.508;9.052;2023-01-15T06:27:41;11.40;20.60
516;DHT22;244;48.508;9.052;2023-01-15T06:30:11;11.10;20.90
516;DHT22;244;48.508;9.052;2023-01-15T06:32:38;10.80;21.20
516;DHT22;244;48.508;9.052;2023-01-15T06:35:05;10.60;21.60
516;DHT22;244;48.508;9.052;2023-01-15T06:37:32;10.30;22.00
516;DHT22;244;48.508;9.052;2023-01-15T06:39:59;10.10;22.50
516;DHT22;244;48.508;9.052;2023-01-15T06:42:26;10.00;23.80
516;DHT22;244;48.508;9.052;2023-01-15T06:45:12;9.80;24.10
516;DHT22;244;48.508;9.052;2023-01-15T06:47:56;9.70;24.60
516;DHT22;244;48.508;9.052;2023-01-15T06:50:23;9.50;25.70
516;DHT22;244;48.508;9.052;2023-01-15T06:52:51;9.40;25.50
516;DHT22;244;48.508;9.052;2023-01-15T06:55:17;9.30;25.80
516;DHT22;244;48.508;9.052;2023-01-15T06:57:44;9.30;26.20
516;DHT22;244;48.508;9.052;2023-01-15T07:00:14;9.20;26.50
516;DHT22;244;48.508;9.052;2023-01-15T07:02:41;9.10;26.60
516;DHT22;244;48.508;9.052;2023-01-15T07:05:08;9.00;27.50
516;DHT22;244;48.508;9.052;2023-01-15T07:07:35;9.00;27.20
516;DHT22;244;48.508;9.052;2023-01-15T07:10:02;9.00;27.50
516;DHT22;244;48.508;9.052;2023-01-15T07:12:29;9.00;27.80
516;DHT22;244;48.508;9.052;2023-01-15T07:14:56;8.90;27.80
516;DHT22;244;48.508;9.052;2023-01-15T07:17:24;8.90;27.80
516;DHT22;244;48.508;9.052;2023-01-15T07:19:51;8.90;28.00
516;DHT22;244;48.508;9.052;2023-01-15T07:22:18;8.80;27.90
516;DHT22;244;48.508;9.052;2023-01-15T07:24:45;8.70;28.00
516;DHT22;244;48.508;9.052;2023-01-15T07:27:12;8.70;28.30
516;DHT22;244;48.508;9.052;2023-01-15T07:29:39;8.70;28.50
516;DHT22;244;48.508;9.052;2023-01-15T07:32:05;8.70;28.60
516;DHT22;244;48.508;9.052;2023-01-15T07:34:34;8.70;28.80
516;DHT22;244;48.508;9.052;2023-01-15T07:37:01;8.70;29.50
516;DHT22;244;48.508;9.052;2023-01-15T07:39:28;8.70;29.00
516;DHT22;244;48.508;9.052;2023-01-15T07:41:56;8.70;29.00
516;DHT22;244;48.508;9.052;2023-01-15T07:44:40;8.70;29.00
516;DHT22;244;48.508;9.052;2023-01-15T07:47:25;8.60;29.60
516;DHT22;244;48.508;9.052;2023-01-15T07:50:13;8.50;29.00
516;DHT22;244;48.508;9.052;2023-01-15T07:52:40;8.50;29.30
516;DHT22;244;48.508;9.052;2023-01-15T07:55:08;8.40;29.20
516;DHT22;244;48.508;9.052;2023-01-15T07:57:37;8.40;29.40
516;DHT22;244;48.508;9.052;2023-01-15T08:00:06;8.40;29.60
516;DHT22;244;48.508;9.052;2023-01-15T08:02:33;8.40;29.70
516;DHT22;244;48.508;9.052;2023-01-15T08:05:00;8.40;30.20
516;DHT22;244;48.508;9.052;2023-01-15T08:07:28;8.40;29.60
516;DHT22;244;48.508;9.052;2023-01-15T08:09:55;8.40;29.60
516;DHT22;244;48.508;9.052;2023-01-15T08:12:22;8.30;29.60
516;DHT22;244;48.508;9.052;2023-01-15T08:15:08;8.30;29.50
516;DHT22;244;48.508;9.052;2023-01-15T08:17:43;8.20;29.60
516;DHT22;244;48.508;9.052;2023-01-15T08:20:13;8.20;29.80
516;DHT22;244;48.508;9.052;2023-01-15T08:22:41;8.20;30.00
516;DHT22;244;48.508;9.052;2023-01-15T08:25:11;8.10;30.70
516;DHT22;244;48.508;9.052;2023-01-15T08:27:38;8.10;30.10
516;DHT22;244;48.508;9.052;2023-01-15T08:30:10;8.20;30.20
516;DHT22;244;48.508;9.052;2023-01-15T08:32:37;8.20;30.30
516;DHT22;244;48.508;9.052;2023-01-15T08:35:05;8.20;30.30
516;DHT22;244;48.508;9.052;2023-01-15T08:37:33;8.20;30.10
516;DHT22;244;48.508;9.052;2023-01-15T08:40:01;8.10;29.80
516;DHT22;244;48.508;9.052;2023-01-15T08:42:29;8.00;29.50
516;DHT22;244;48.508;9.052;2023-01-15T08:44:56;7.90;30.00
516;DHT22;244;48.508;9.052;2023-01-15T08:47:23;7.80;30.30
516;DHT22;244;48.508;9.052;2023-01-15T08:49:50;7.80;29.90
516;DHT22;244;48.508;9.052;2023-01-15T08:52:16;7.80;30.50
516;DHT22;244;48.508;9.052;2023-01-15T08:54:43;7.80;30.70
516;DHT22;244;48.508;9.052;2023-01-15T08:57:12;7.90;30.80
516;DHT22;244;48.508;9.052;2023-01-15T08:59:38;7.90;31.70
516;DHT22;244;48.508;9.052;2023-01-15T09:02:10;8.00;31.50
516;DHT22;244;48.508;9.052;2023-01-15T09:04:38;8.10;31.70
516;DHT22;244;48.508;9.052;2023-01-15T09:07:04;8.10;30.90
516;DHT22;244;48.508;9.052;2023-01-15T09:09:32;8.10;31.00
516;DHT22;244;48.508;9.052;2023-01-15T09:12:00;8.20;30.90
516;DHT22;244;48.508;9.052;2023-01-15T09:14:28;8.20;30.80
516;DHT22;244;48.508;9.052;2023-01-15T09:16:55;8.30;30.70
516;DHT22;244;48.508;9.052;2023-01-15T09:19:22;8.30;30.80
516;DHT22;244;48.508;9.052;2023-01-15T09:21:49;8.30;30.70
516;DHT22;244;48.508;9.052;2023-01-15T09:24:16;8.40;30.90
516;DHT22;244;48.508;9.052;2023-01-15T09:26:42;8.50;30.80
516;DHT22;244;48.508;9.052;2023-01-15T09:29:09;8.50;31.60
516;DHT22;244;48.508;9.052;2023-01-15T09:31:42;8.50;30.70
516;DHT22;244;48.508;9.052;2023-01-15T09:34:09;8.60;31.20
516;DHT22;244;48.508;9.052;2023-01-15T09:36:36;8.60;30.20
516;DHT22;244;48.508;9.052;2023-01-15T09:39:03;8.60;30.00
516;DHT22;244;48.508;9.052;2023-01-15T09:41:37;8.60;30.20
516;DHT22;244;48.508;9.052;2023-01-15T09:44:35;8.60;30.20
516;DHT22;244;48.508;9.052;2023-01-15T09:47:08;8.50;29.90
516;DHT22;244;48.508;9.052;2023-01-15T09:49:48;8.50;30.10
516;DHT22;244;48.508;9.052;2023-01-15T09:52:24;8.40;30.10
516;DHT22;244;48.508;9.052;2023-01-15T09:54:58;8.30;29.70
516;DHT22;244;48.508;9.052;2023-01-15T09:57:29;8.10;29.50
516;DHT22;244;48.508;9.052;2023-01-15T09:59:59;8.00;29.80
516;DHT22;244;48.508;9.052;2023-01-15T10:02:34;7.90;29.90
516;DHT22;244;48.508;9.052;2023-01-15T10:05:10;7.80;30.00
516;DHT22;244;48.508;9.052;2023-01-15T10:07:41;7.80;30.30
516;DHT22;244;48.508;9.052;2023-01-15T10:10:13;7.80;30.80
516;DHT22;244;48.508;9.052;2023-01-15T10:12:43;7.80;30.90
516;DHT22;244;48.508;9.052;2023-01-15T10:15:21;7.70;31.00
516;DHT22;244;48.508;9.052;2023-01-15T10:17:52;7.70;30.70
516;DHT22;244;48.508;9.052;2023-01-15T10:20:47;7.80;30.80
516;DHT22;244;48.508;9.052;2023-01-15T10:23:33;7.70;30.70
516;DHT22;244;48.508;9.052;2023-01-15T10:26:07;7.60;31.50
516;DHT22;244;48.508;9.052;2023-01-15T10:28:48;7.60;31.00
516;DHT22;244;48.508;9.052;2023-01-15T10:31:20;7.60;31.00
516;DHT22;244;48.508;9.052;2023-01-15T10:34:02;7.60;31.30
516;DHT22;244;48.508;9.052;2023-01-15T10:36:33;7.60;31.30
516;DHT22;244;48.508;9.052;2023-01-15T10:39:09;7.60;31.30
516;DHT22;244;48.508;9.052;2023-01-15T10:41:51;7.60;31.30
516;DHT22;244;48.508;9.052;2023-01-15T10:44:40;7.60;31.30
516;DHT22;244;48.508;9.052;2023-01-15T10:47:12;7.60;32.10
516;DHT22;244;48.508;9.052;2023-01-15T10:49:41;7.50;31.20
516;DHT22;244;48.508;9.052;2023-01-15T10:52:18;7.50;31.10
516;DHT22;244;48.508;9.052;2023-01-15T10:54:55;7.40;30.90
516;DHT22;244;48.508;9.052;2023-01-15T10:57:31;7.30;30.60
516;DHT22;244;48.508;9.052;2023-01-15T11:00:02;7.20;30.60
516;DHT22;244;48.508;9.052;2023-01-15T11:02:32;7.20;30.90
516;DHT22;244;48.508;9.052;2023-01-15T11:05:04;7.20;31.00
516;DHT22;244;48.508;9.052;2023-01-15T11:07:40;7.20;31.00
516;DHT22;244;48.508;9.052;2023-01-15T11:10:09;7.20;31.00
516;DHT22;244;48.508;9.052;2023-01-15T11:12:38;7.10;31.00
516;DHT22;244;48.508;9.052;2023-01-15T11:15:26;7.10;31.70
516;DHT22;244;48.508;9.052;2023-01-15T11:18:21;7.00;30.90
516;DHT22;244;48.508;9.052;2023-01-15T11:21:12;7.00;30.90
516;DHT22;244;48.508;9.052;2023-01-15T11:23:41;7.00;30.90
516;DHT22;244;48.508;9.052;2023-01-15T11:26:08;7.00;30.90
516;DHT22;244;48.508;9.052;2023-01-15T11:28:38;7.00;30.90
516;DHT22;244;48.508;9.052;2023-01-15T11:31:07;7.00;32.20
516;DHT22;244;48.508;9.052;2023-01-15T11:33:34;7.10;31.60
516;DHT22;244;48.508;9.052;2023-01-15T11:36:03;7.10;31.60
516;DHT22;244;48.508;9.052;2023-01-15T11:38:42;7.10;31.20
516;DHT22;244;48.508;9.052;2023-01-15T11:41:19;7.10;31.30
516;DHT22;244;48.508;9.052;2023-01-15T11:43:53;7.10;31.00
516;DHT22;244;48.508;9.052;2023-01-15T11:46:37;7.00;31.60
516;DHT22;244;48.508;9.052;2023-01-15T11:49:22;7.00;30.90
516;DHT22;244;48.508;9.052;2023-01-15T11:52:09;7.00;31.10
516;DHT22;244;48.508;9.052;2023-01-15T11:54:40;7.00;30.90
516;DHT22;244;48.508;9.052;2023-01-15T11:57:07;6.90;30.80
516;DHT22;244;48.508;9.052;2023-01-15T11:59:35;6.80;30.70
516;DHT22;244;48.508;9.052;2023-01-15T12:02:10;6.80;30.70
516;DHT22;244;48.508;9.052;2023-01-15T12:04:48;6.70;30.60
516;DHT22;244;48.508;9.052;2023-01-15T12:07:15;6.70;30.60
516;DHT22;244;48.508;9.052;2023-01-15T12:10:04;6.60;30.50
516;DHT22;244;48.508;9.052;2023-01-15T12:12:43;6.50;30.10
516;DHT22;244;48.508;9.052;2023-01-15T12:18:29;6.20;29.60
516;DHT22;244;48.508;9.052;2023-01-15T12:21:03;6.10;29.80
516;DHT22;244;48.508;9.052;2023-01-15T12:23:52;6.10;30.10
516;DHT22;244;48.508;9.052;2023-01-15T12:26:26;6.10;30.30
516;DHT22;244;48.508;9.052;2023-01-15T12:29:01;6.10;30.10
516;DHT22;244;48.508;9.052;2023-01-15T12:31:34;6.10;30.60
516;DHT22;244;48.508;9.052;2023-01-15T12:34:10;6.00;30.40
516;DHT22;244;48.508;9.052;2023-01-15T12:36:42;6.10;30.80
516;DHT22;244;48.508;9.052;2023-01-15T12:39:15;6.10;31.00
516;DHT22;244;48.508;9.052;2023-01-15T12:41:48;6.10;31.00
516;DHT22;244;48.508;9.052;2023-01-15T12:44:37;6.20;31.30
516;DHT22;244;48.508;9.052;2023-01-15T12:47:26;6.20;31.10
516;DHT22;244;48.508;9.052;2023-01-15T12:49:59;6.30;31.10
516;DHT22;244;48.508;9.052;2023-01-15T12:52:32;6.30;30.90
516;DHT22;244;48.508;9.052;2023-01-15T12:55:05;6.30;30.90
516;DHT22;244;48.508;9.052;2023-01-15T12:57:37;6.30;30.70
516;DHT22;244;48.508;9.052;2023-01-15T13:00:12;6.30;30.70
516;DHT22;244;48.508;9.052;2023-01-15T13:02:55;6.30;30.80
516;DHT22;244;48.508;9.052;2023-01-15T13:05:27;6.30;30.60
516;DHT22;244;48.508;9.052;2023-01-15T13:07:59;6.30;30.80
516;DHT22;244;48.508;9.052;2023-01-15T13:10:28;6.30;30.80
516;DHT22;244;48.508;9.052;2023-01-15T13:13:12;6.40;31.00
516;DHT22;244;48.508;9.052;2023-01-15T13:15:46;6.50;31.00
516;DHT22;244;48.508;9.052;2023-01-15T13:18:19;6.60;31.50
516;DHT22;244;48.508;9.052;2023-01-15T13:20:49;6.60;30.80
516;DHT22;244;48.508;9.052;2023-01-15T13:23:35;6.70;30.60
516;DHT22;244;48.508;9.052;2023-01-15T13:26:13;6.80;30.70
516;DHT22;244;48.508;9.052;2023-01-15T13:28:57;6.80;30.70
516;DHT22;244;48.508;9.052;2023-01-15T13:31:45;6.80;30.70
516;DHT22;244;48.508;9.052;2023-01-15T13:34:23;6.80;30.70
516;DHT22;244;48.508;9.052;2023-01-15T13:36:53;6.80;30.50
516;DHT22;244;48.508;9.052;2023-01-15T13:39:24;6.80;30.50
516;DHT22;244;48.508;9.052;2023-01-15T13:41:54;6.80;30.60
516;DHT22;244;48.508;9.052;2023-01-15T13:44:46;6.80;30.70
516;DHT22;244;48.508;9.052;2023-01-15T13:47:18;6.80;30.70
516;DHT22;244;48.508;9.052;2023-01-15T13:49:50;6.80;30.70
516;DHT22;244;48.508;9.052;2023-01-15T13:52:23;6.80;30.60
516;DHT22;244;48.508;9.052;2023-01-15T13:54:51;6.80;30.70
516;DHT22;244;48.508;9.052;2023-01-15T13:57:31;6.80;30.70
516;DHT22;244;48.508;9.052;2023-01-15T14:00:00;6.90;30.80
516;DHT22;244;48.508;9.052;2023-01-15T14:02:30;6.80;30.70
516;DHT22;244;48.508;9.052;2023-01-15T14:04:57;6.80;30.70
516;DHT22;244;48.508;9.052;2023-01-15T14:07:32;6.80;30.70
516;DHT22;244;48.508;9.052;2023-01-15T14:10:25;6.80;30.70
516;DHT22;244;48.508;9.052;2023-01-15T14:13:01;6.80;31.40
516;DHT22;244;48.508;9.052;2023-01-15T14:15:39;6.70;30.60
516;DHT22;244;48.508;9.052;2023-01-15T14:18:18;6.70;30.60
516;DHT22;244;48.508;9.052;2023-01-15T14:20:59;6.60;30.50
516;DHT22;244;48.508;9.052;2023-01-15T14:23:50;6.60;30.50
516;DHT22;244;48.508;9.052;2023-01-15T14:26:29;6.60;30.50
516;DHT22;244;48.508;9.052;2023-01-15T14:29:21;6.50;30.50
516;DHT22;244;48.508;9.052;2023-01-15T14:32:00;6.50;30.50
516;DHT22;244;48.508;9.052;2023-01-15T14:34:31;6.50;30.70
516;DHT22;244;48.508;9.052;2023-01-15T14:37:01;6.50;30.80
516;DHT22;244;48.508;9.052;2023-01-15T14:39:32;6.50;30.80
516;DHT22;244;48.508;9.052;2023-01-15T14:42:06;6.50;30.90
516;DHT22;244;48.508;9.052;2023-01-15T14:44:56;6.50;31.00
516;DHT22;244;48.508;9.052;2023-01-15T14:47:33;6.50;31.00
516;DHT22;244;48.508;9.052;2023-01-15T14:50:26;6.60;30.90
516;DHT22;244;48.508;9.052;2023-01-15T14:52:59;6.60;30.50
516;DHT22;244;48.508;9.052;2023-01-15T14:55:28;6.60;30.50
516;DHT22;244;48.508;9.052;2023-01-15T14:57:59;6.70;30.60
516;DHT22;244;48.508;9.052;2023-01-15T15:00:32;6.70;30.30
516;DHT22;244;48.508;9.052;2023-01-15T15:03:04;6.70;30.60
516;DHT22;244;48.508;9.052;2023-01-15T15:05:40;6.70;29.70
516;DHT22;244;48.508;9.052;2023-01-15T15:08:11;6.80;29.60
516;DHT22;244;48.508;9.052;2023-01-15T15:10:41;6.80;29.50
516;DHT22;244;48.508;9.052;2023-01-15T15:13:13;6.70;29.40
516;DHT22;244;48.508;9.052;2023-01-15T15:15:49;6.80;29.40
516;DHT22;244;48.508;9.052;2023-01-15T15:18:26;6.70;29.30
516;DHT22;244;48.508;9.052;2023-01-15T15:21:01;6.70;29.10
516;DHT22;244;48.508;9.052;2023-01-15T15:23:33;6.70;29.10
516;DHT22;244;48.508;9.052;2023-01-15T15:26:04;6.70;29.00
516;DHT22;244;48.508;9.052;2023-01-15T15:28:32;6.70;29.00
516;DHT22;244;48.508;9.052;2023-01-15T15:30:59;6.60;29.00
516;DHT22;244;48.508;9.052;2023-01-15T15:33:35;6.60;29.00
516;DHT22;244;48.508;9.052;2023-01-15T15:36:03;6.60;29.00
516;DHT22;244;48.508;9.052;2023-01-15T15:38:31;6.50;28.90
516;DHT22;244;48.508;9.052;2023-01-15T15:40:59;6.50;28.90
516;DHT22;244;48.508;9.052;2023-01-15T15:43:29;6.50;28.90
516;DHT22;244;48.508;9.052;2023-01-15T15:46:23;6.40;28.80
516;DHT22;244;48.508;9.052;2023-01-15T15:49:10;6.40;28.80
516;DHT22;244;48.508;9.052;2023-01-15T15:51:38;6.40;28.80
516;DHT22;244;48.508;9.052;2023-01-15T15:54:17;6.30;28.80
516;DHT22;244;48.508;9.052;2023-01-15T15:56:48;6.30;28.80
516;DHT22;244;48.508;9.052;2023-01-15T15:59:27;6.20;28.60
516;DHT22;244;48.508;9.052;2023-01-15T16:01:54;6.20;28.50
516;DHT22;244;48.508;9.052;2023-01-15T16:04:23;6.10;28.50
516;DHT22;244;48.508;9.052;2023-01-15T16:06:50;6.10;28.60
516;DHT22;244;48.508;9.052;2023-01-15T16:09:22;6.10;28.60
516;DHT22;244;48.508;9.052;2023-01-15T16:11:50;6.10;28.70
516;DHT22;244;48.508;9.052;2023-01-15T16:14:18;6.00;28.70
516;DHT22;244;48.508;9.052;2023-01-15T16:16:47;6.00;28.70
516;DHT22;244;48.508;9.052;2023-01-15T16:19:17;6.00;28.60
516;DHT22;244;48.508;9.052;2023-01-15T16:21:47;5.90;28.50
516;DHT22;244;48.508;9.052;2023-01-15T16:24:25;5.90;28.50
516;DHT22;244;48.508;9.052;2023-01-15T16:26:56;5.90;28.60
516;DHT22;244;48.508;9.052;2023-01-15T16:29:26;5.90;28.60
516;DHT22;244;48.508;9.052;2023-01-15T16:31:54;5.90;28.70
516;DHT22;244;48.508;9.052;2023-01-15T16:34:25;5.90;28.80
516;DHT22;244;48.508;9.052;2023-01-15T16:36:55;5.90;28.90
516;DHT22;244;48.508;9.052;2023-01-15T16:39:25;5.90;28.90
516;DHT22;244;48.508;9.052;2023-01-15T16:41:54;5.90;28.90
516;DHT22;244;48.508;9.052;2023-01-15T16:44:38;5.90;28.90
516;DHT22;244;48.508;9.052;2023-01-15T16:47:20;5.90;28.80
516;DHT22;244;48.508;9.052;2023-01-15T16:49:50;5.90;28.80
516;DHT22;244;48.508;9.052;2023-01-15T16:52:52;5.80;28.60
516;DHT22;244;48.508;9.052;2023-01-15T16:55:41;5.80;28.70
516;DHT22;244;48.508;9.052;2023-01-15T16:58:19;5.80;28.50
516;DHT22;244;48.508;9.052;2023-01-15T17:00:48;5.70;28.50
516;DHT22;244;48.508;9.052;2023-01-15T17:03:17;5.70;28.50
516;DHT22;244;48.508;9.052;2023-01-15T17:05:46;5.60;28.50
516;DHT22;244;48.508;9.052;2023-01-15T17:08:16;5.60;28.50
516;DHT22;244;48.508;9.052;2023-01-15T17:10:52;5.60;28.50
516;DHT22;244;48.508;9.052;2023-01-15T17:13:20;5.60;28.60
516;DHT22;244;48.508;9.052;2023-01-15T17:16:03;5.60;29.10
516;DHT22;244;48.508;9.052;2023-01-15T17:18:31;5.50;28.50
516;DHT22;244;48.508;9.052;2023-01-15T17:20:59;5.50;28.30